createdAt,value
2017-08-08T00:00:35.106Z,0
2017-08-08T00:01:34.102Z,0
2017-08-08T00:02:34.104Z,0
2017-08-08T00:03:33.811Z,0
2017-08-08T00:04:33.809Z,0
2017-08-08T00:05:33.817Z,0
2017-08-08T00:06:34.121Z,0
2017-08-08T00:07:34.124Z,0
2017-08-08T00:08:33.823Z,0
2017-08-08T00:09:33.835Z,0
2017-08-08T00:10:34.152Z,0
2017-08-08T00:11:34.148Z,0
2017-08-08T00:12:34.151Z,0
2017-08-08T00:13:34.143Z,0
2017-08-08T00:14:33.839Z,0
2017-08-08T00:15:33.897Z,0
2017-08-08T00:16:33.549Z,0
2017-08-08T00:17:33.853Z,0
2017-08-08T00:18:34.160Z,0
2017-08-08T00:19:34.159Z,0
2017-08-08T00:20:33.850Z,0
2017-08-08T00:21:33.548Z,0
2017-08-08T00:22:34.148Z,0
2017-08-08T00:23:34.145Z,0
2017-08-08T00:24:34.157Z,0
2017-08-08T00:25:33.567Z,0
2017-08-08T00:26:33.864Z,0
2017-08-08T00:27:34.171Z,0
2017-08-08T00:28:33.561Z,0
2017-08-08T00:29:33.563Z,0
2017-08-08T00:30:35.174Z,0
2017-08-08T00:31:34.171Z,0
2017-08-08T00:32:33.871Z,0
2017-08-08T00:33:34.172Z,0
2017-08-08T00:34:34.193Z,0
2017-08-08T00:35:34.209Z,0
2017-08-08T00:36:34.194Z,0
2017-08-08T00:37:34.196Z,0
2017-08-08T00:38:34.195Z,0
2017-08-08T00:39:33.579Z,0
2017-08-08T00:40:33.896Z,0
2017-08-08T00:41:34.206Z,0
2017-08-08T00:42:34.197Z,0
2017-08-08T00:43:34.199Z,0
2017-08-08T00:44:33.906Z,0
2017-08-08T00:45:35.298Z,0
2017-08-08T00:46:34.202Z,0
2017-08-08T00:47:33.605Z,0
2017-08-08T00:48:33.897Z,0
2017-08-08T00:49:34.204Z,0
2017-08-08T00:50:34.203Z,0
2017-08-08T00:51:34.207Z,0
2017-08-08T00:52:34.212Z,0
2017-08-08T00:53:34.211Z,0
2017-08-08T00:54:34.213Z,0
2017-08-08T00:55:34.223Z,0
2017-08-08T00:56:33.912Z,0
2017-08-08T00:57:33.936Z,0
2017-08-08T00:58:33.928Z,0
2017-08-08T00:59:34.226Z,0
2017-08-08T01:00:33.935Z,0
2017-08-08T01:01:34.225Z,0
2017-08-08T01:02:33.943Z,0
2017-08-08T01:03:34.233Z,0
2017-08-08T01:04:34.242Z,0
2017-08-08T01:05:34.232Z,0
2017-08-08T01:06:35.044Z,0
2017-08-08T01:07:34.240Z,0
2017-08-08T01:08:34.244Z,0
2017-08-08T01:09:34.241Z,0
2017-08-08T01:10:34.239Z,0
2017-08-08T01:11:34.247Z,0
2017-08-08T01:12:34.344Z,0
2017-08-08T01:13:34.317Z,0
2017-08-08T01:14:34.280Z,0
2017-08-08T01:15:34.249Z,0
2017-08-08T01:16:34.300Z,0
2017-08-08T01:17:33.963Z,0
2017-08-08T01:18:33.959Z,0
2017-08-08T01:19:33.958Z,0
2017-08-08T01:20:34.285Z,0
2017-08-08T01:21:34.279Z,0
2017-08-08T01:22:34.279Z,0
2017-08-08T01:23:34.263Z,0
2017-08-08T01:24:33.968Z,0
2017-08-08T01:25:34.289Z,0
2017-08-08T01:26:34.281Z,0
2017-08-08T01:27:33.970Z,0
2017-08-08T01:28:34.281Z,0
2017-08-08T01:29:34.285Z,0
2017-08-08T01:30:34.294Z,0
2017-08-08T01:31:37.398Z,0
2017-08-08T01:32:34.282Z,0
2017-08-08T01:33:33.987Z,0
2017-08-08T01:34:33.992Z,0
2017-08-08T01:35:34.283Z,0
2017-08-08T01:36:33.989Z,0
2017-08-08T01:37:33.993Z,0
2017-08-08T01:38:34.325Z,0
2017-08-08T01:39:33.996Z,0
2017-08-08T01:40:33.995Z,0
2017-08-08T01:41:33.996Z,0
2017-08-08T01:42:34.292Z,0
2017-08-08T01:43:34.303Z,0
2017-08-08T01:44:34.000Z,0
2017-08-08T01:45:34.304Z,0
2017-08-08T01:46:34.315Z,0
2017-08-08T01:47:34.304Z,0
2017-08-08T01:48:34.312Z,0
2017-08-08T01:49:34.307Z,0
2017-08-08T01:50:34.358Z,0
2017-08-08T01:51:34.372Z,0
2017-08-08T01:52:34.007Z,0
2017-08-08T01:53:34.316Z,0
2017-08-08T01:54:34.338Z,0
2017-08-08T01:55:34.318Z,0
2017-08-08T01:56:34.329Z,0
2017-08-08T01:57:34.022Z,0
2017-08-08T01:58:34.023Z,0
2017-08-08T01:59:34.352Z,0
2017-08-08T02:00:34.329Z,0
2017-08-08T02:01:33.729Z,0
2017-08-08T02:02:34.324Z,0
2017-08-08T02:03:34.334Z,0
2017-08-08T02:04:34.333Z,0
2017-08-08T02:05:34.041Z,0
2017-08-08T02:06:34.049Z,0
2017-08-08T02:07:34.338Z,0
2017-08-08T02:08:34.041Z,0
2017-08-08T02:09:34.339Z,0
2017-08-08T02:10:34.045Z,0
2017-08-08T02:11:34.346Z,0
2017-08-08T02:12:34.343Z,0
2017-08-08T02:13:34.356Z,0
2017-08-08T02:14:34.369Z,0
2017-08-08T02:15:34.048Z,0
2017-08-08T02:16:34.053Z,0
2017-08-08T02:17:33.751Z,0
2017-08-08T02:18:34.368Z,0
2017-08-08T02:19:34.353Z,0
2017-08-08T02:20:34.354Z,0
2017-08-08T02:21:34.359Z,0
2017-08-08T02:22:34.377Z,0
2017-08-08T02:23:34.370Z,0
2017-08-08T02:24:34.370Z,0
2017-08-08T02:25:34.373Z,0
2017-08-08T02:26:34.379Z,0
2017-08-08T02:27:34.082Z,0
2017-08-08T02:28:34.077Z,0
2017-08-08T02:29:34.396Z,0
2017-08-08T02:30:34.446Z,0
2017-08-08T02:31:34.104Z,0
2017-08-08T02:32:35.080Z,0
2017-08-08T02:33:34.388Z,0
2017-08-08T02:34:33.793Z,0
2017-08-08T02:35:34.083Z,0
2017-08-08T02:36:34.396Z,0
2017-08-08T02:37:34.086Z,0
2017-08-08T02:38:34.385Z,0
2017-08-08T02:39:35.583Z,0
2017-08-08T02:40:34.397Z,0
2017-08-08T02:41:34.396Z,0
2017-08-08T02:42:34.097Z,0
2017-08-08T02:43:34.396Z,0
2017-08-08T02:44:34.390Z,0
2017-08-08T02:45:34.086Z,0
2017-08-08T02:46:34.392Z,0
2017-08-08T02:47:34.462Z,0
2017-08-08T02:48:34.401Z,0
2017-08-08T02:49:34.096Z,0
2017-08-08T02:50:34.404Z,0
2017-08-08T02:51:33.807Z,0
2017-08-08T02:52:34.110Z,0
2017-08-08T02:53:34.100Z,0
2017-08-08T02:54:34.104Z,0
2017-08-08T02:55:34.105Z,0
2017-08-08T02:56:33.806Z,0
2017-08-08T02:57:34.404Z,0
2017-08-08T02:58:34.113Z,0
2017-08-08T02:59:34.428Z,0
2017-08-08T03:00:34.425Z,0
2017-08-08T03:01:34.414Z,0
2017-08-08T03:02:35.413Z,0
2017-08-08T03:03:34.417Z,0
2017-08-08T03:04:34.424Z,0
2017-08-08T03:05:34.429Z,0
2017-08-08T03:06:34.423Z,0
2017-08-08T03:07:34.124Z,0
2017-08-08T03:08:34.462Z,0
2017-08-08T03:09:34.461Z,0
2017-08-08T03:10:34.435Z,0
2017-08-08T03:11:34.130Z,0
2017-08-08T03:12:34.438Z,0
2017-08-08T03:13:34.428Z,0
2017-08-08T03:14:34.448Z,0
2017-08-08T03:15:34.450Z,0
2017-08-08T03:16:34.448Z,0
2017-08-08T03:17:36.438Z,0
2017-08-08T03:18:34.437Z,0
2017-08-08T03:19:34.449Z,0
2017-08-08T03:20:34.145Z,0
2017-08-08T03:21:34.458Z,0
2017-08-08T03:22:34.140Z,0
2017-08-08T03:23:34.472Z,0
2017-08-08T03:24:34.151Z,0
2017-08-08T03:25:34.463Z,0
2017-08-08T03:26:34.455Z,0
2017-08-08T03:27:34.146Z,4
2017-08-08T03:28:34.463Z,4
2017-08-08T03:29:34.468Z,0
2017-08-08T03:30:34.474Z,0
2017-08-08T03:31:34.175Z,4
2017-08-08T03:32:35.616Z,4
2017-08-08T03:33:34.465Z,0
2017-08-08T03:34:34.459Z,4
2017-08-08T03:35:34.468Z,8
2017-08-08T03:36:34.162Z,4
2017-08-08T03:37:34.481Z,4
2017-08-08T03:38:34.170Z,4
2017-08-08T03:39:34.183Z,8
2017-08-08T03:40:34.476Z,8
2017-08-08T03:41:34.474Z,12
2017-08-08T03:42:34.479Z,12
2017-08-08T03:43:34.471Z,12
2017-08-08T03:44:34.187Z,16
2017-08-08T03:45:34.487Z,20
2017-08-08T03:46:34.479Z,20
2017-08-08T03:47:34.479Z,24
2017-08-08T03:48:34.476Z,28
2017-08-08T03:49:33.878Z,32
2017-08-08T03:50:33.889Z,40
2017-08-08T03:51:34.185Z,44
2017-08-08T03:52:34.482Z,52
2017-08-08T03:53:34.509Z,60
2017-08-08T03:54:34.192Z,76
2017-08-08T03:55:34.194Z,88
2017-08-08T03:56:34.205Z,100
2017-08-08T03:57:34.503Z,120
2017-08-08T03:58:34.498Z,136
2017-08-08T03:59:34.493Z,148
2017-08-08T04:00:34.502Z,156
2017-08-08T04:01:34.499Z,164
2017-08-08T04:02:34.200Z,172
2017-08-08T04:03:34.510Z,180
2017-08-08T04:04:33.896Z,196
2017-08-08T04:05:34.499Z,220
2017-08-08T04:06:34.501Z,252
2017-08-08T04:07:34.197Z,284
2017-08-08T04:08:34.508Z,320
2017-08-08T04:09:34.195Z,352
2017-08-08T04:10:34.498Z,380
2017-08-08T04:11:34.200Z,408
2017-08-08T04:12:34.205Z,436
2017-08-08T04:13:33.898Z,468
2017-08-08T04:14:34.506Z,504
2017-08-08T04:15:34.207Z,544
2017-08-08T04:16:34.508Z,592
2017-08-08T04:17:34.505Z,640
2017-08-08T04:18:34.518Z,684
2017-08-08T04:19:34.510Z,732
2017-08-08T04:20:34.227Z,772
2017-08-08T04:21:34.222Z,808
2017-08-08T04:22:34.526Z,848
2017-08-08T04:23:35.051Z,884
2017-08-08T04:24:34.527Z,920
2017-08-08T04:25:34.542Z,952
2017-08-08T04:26:34.529Z,976
2017-08-08T04:27:34.464Z,1008
2017-08-08T04:28:34.242Z,1040
2017-08-08T04:29:34.532Z,1076
2017-08-08T04:30:33.629Z,1120
2017-08-08T04:31:34.544Z,1172
2017-08-08T04:32:33.939Z,1216
2017-08-08T04:33:34.539Z,1264
2017-08-08T04:34:34.530Z,1340
2017-08-08T04:35:34.539Z,1432
2017-08-08T04:36:34.544Z,1572
2017-08-08T04:37:34.548Z,1680
2017-08-08T04:38:34.550Z,1592
2017-08-08T04:39:34.264Z,1532
2017-08-08T04:40:34.549Z,1624
2017-08-08T04:41:34.247Z,1828
2017-08-08T04:42:34.551Z,1856
2017-08-08T04:43:34.558Z,1792
2017-08-08T04:44:34.560Z,1760
2017-08-08T04:45:34.569Z,1824
2017-08-08T04:46:34.546Z,1952
2017-08-08T04:47:34.554Z,2284
2017-08-08T04:48:34.621Z,2416
2017-08-08T04:49:34.560Z,2200
2017-08-08T04:50:34.560Z,2064
2017-08-08T04:51:34.569Z,2040
2017-08-08T04:52:34.559Z,2048
2017-08-08T04:53:34.568Z,2076
2017-08-08T04:54:34.569Z,2112
2017-08-08T04:55:34.270Z,2140
2017-08-08T04:56:34.574Z,2156
2017-08-08T04:57:34.582Z,2196
2017-08-08T04:58:34.277Z,2276
2017-08-08T04:59:34.588Z,2384
2017-08-08T05:00:34.591Z,2984
2017-08-08T05:01:34.584Z,3684
2017-08-08T05:02:34.589Z,4064
2017-08-08T05:03:37.224Z,4024
2017-08-08T05:04:34.301Z,2652
2017-08-08T05:05:34.289Z,2708
2017-08-08T05:06:34.292Z,2976
2017-08-08T05:07:34.303Z,3012
2017-08-08T05:08:34.598Z,3112
2017-08-08T05:09:34.302Z,3460
2017-08-08T05:10:34.604Z,3864
2017-08-08T05:11:34.606Z,4108
2017-08-08T05:12:34.347Z,3620
2017-08-08T05:13:34.635Z,3644
2017-08-08T05:14:34.630Z,3808
2017-08-08T05:15:34.634Z,4432
2017-08-08T05:16:34.637Z,4860
2017-08-08T05:17:34.636Z,5204
2017-08-08T05:18:37.589Z,4868
2017-08-08T05:19:34.634Z,4748
2017-08-08T05:20:34.343Z,4872
2017-08-08T05:21:34.363Z,4396
2017-08-08T05:22:34.648Z,3500
2017-08-08T05:23:34.643Z,3396
2017-08-08T05:24:34.357Z,3368
2017-08-08T05:25:34.358Z,3428
2017-08-08T05:26:34.660Z,3324
2017-08-08T05:27:34.659Z,3308
2017-08-08T05:28:34.360Z,3288
2017-08-08T05:29:34.358Z,3296
2017-08-08T05:30:34.662Z,3360
2017-08-08T05:31:34.686Z,3372
2017-08-08T05:32:34.674Z,3412
2017-08-08T05:33:34.681Z,3344
2017-08-08T05:34:38.136Z,3284
2017-08-08T05:35:34.678Z,3240
2017-08-08T05:36:34.684Z,3160
2017-08-08T05:37:34.380Z,3116
2017-08-08T05:38:34.388Z,3084
2017-08-08T05:39:34.693Z,3088
2017-08-08T05:40:34.707Z,3104
2017-08-08T05:41:34.697Z,3168
2017-08-08T05:42:34.414Z,3300
2017-08-08T05:43:34.708Z,3428
2017-08-08T05:44:34.710Z,3520
2017-08-08T05:45:34.707Z,3652
2017-08-08T05:46:34.430Z,3724
2017-08-08T05:47:34.713Z,3860
2017-08-08T05:48:34.414Z,3984
2017-08-08T05:49:34.480Z,4116
2017-08-08T05:50:34.737Z,4276
2017-08-08T05:51:34.729Z,4468
2017-08-08T05:52:34.427Z,4796
2017-08-08T05:53:34.739Z,5108
2017-08-08T05:54:34.750Z,5372
2017-08-08T05:55:34.752Z,5616
2017-08-08T05:56:34.740Z,6576
2017-08-08T05:57:34.744Z,6080
2017-08-08T05:58:34.742Z,5368
2017-08-08T05:59:34.748Z,5080
2017-08-08T06:00:34.755Z,4920
2017-08-08T06:01:34.459Z,4924
2017-08-08T06:02:34.147Z,5172
2017-08-08T06:03:34.459Z,5360
2017-08-08T06:04:35.861Z,5740
2017-08-08T06:05:34.766Z,6056
2017-08-08T06:06:34.764Z,5552
2017-08-08T06:07:34.770Z,5180
2017-08-08T06:08:34.473Z,4948
2017-08-08T06:09:34.470Z,4764
2017-08-08T06:10:34.473Z,4660
2017-08-08T06:11:34.478Z,4580
2017-08-08T06:12:34.783Z,4460
2017-08-08T06:13:34.782Z,4296
2017-08-08T06:14:34.482Z,4096
2017-08-08T06:15:34.489Z,3912
2017-08-08T06:16:34.798Z,3728
2017-08-08T06:17:34.791Z,3584
2017-08-08T06:18:34.796Z,3500
2017-08-08T06:19:34.875Z,3396
2017-08-08T06:20:34.503Z,3352
2017-08-08T06:21:34.808Z,3452
2017-08-08T06:22:34.810Z,3620
2017-08-08T06:23:34.817Z,3804
2017-08-08T06:24:34.815Z,3976
2017-08-08T06:25:34.514Z,4144
2017-08-08T06:26:34.835Z,4256
2017-08-08T06:27:34.832Z,4356
2017-08-08T06:28:34.828Z,4440
2017-08-08T06:29:34.828Z,4532
2017-08-08T06:30:34.540Z,4660
2017-08-08T06:31:34.835Z,4832
2017-08-08T06:32:34.847Z,5044
2017-08-08T06:33:34.839Z,5420
2017-08-08T06:34:35.944Z,6308
2017-08-08T06:35:34.544Z,9208
2017-08-08T06:36:34.847Z,7412
2017-08-08T06:37:34.858Z,8400
2017-08-08T06:38:34.868Z,9896
2017-08-08T06:39:34.276Z,13668
2017-08-08T06:40:34.862Z,15040
2017-08-08T06:41:34.879Z,15584
2017-08-08T06:42:34.880Z,16192
2017-08-08T06:43:34.880Z,16352
2017-08-08T06:44:34.887Z,16384
2017-08-08T06:45:34.885Z,16384
2017-08-08T06:46:34.884Z,15840
2017-08-08T06:47:34.898Z,15936
2017-08-08T06:48:34.611Z,14792
2017-08-08T06:49:34.903Z,15872
2017-08-08T06:50:34.948Z,16224
2017-08-08T06:51:34.641Z,15936
2017-08-08T06:52:34.941Z,15872
2017-08-08T06:53:34.642Z,15552
2017-08-08T06:54:34.941Z,15872
2017-08-08T06:55:34.955Z,15184
2017-08-08T06:56:34.649Z,14796
2017-08-08T06:57:34.970Z,14616
2017-08-08T06:58:34.961Z,14208
2017-08-08T06:59:34.699Z,14676
2017-08-08T07:00:34.995Z,13932
2017-08-08T07:01:34.994Z,11940
2017-08-08T07:02:34.998Z,9908
2017-08-08T07:03:34.710Z,11340
2017-08-08T07:04:35.015Z,12176
2017-08-08T07:05:38.126Z,11484
2017-08-08T07:06:35.036Z,14680
2017-08-08T07:07:35.040Z,14608
2017-08-08T07:08:35.039Z,15244
2017-08-08T07:09:34.754Z,15116
2017-08-08T07:10:35.067Z,14952
2017-08-08T07:11:34.477Z,14608
2017-08-08T07:12:35.064Z,14160
2017-08-08T07:13:34.777Z,13672
2017-08-08T07:14:35.087Z,13516
2017-08-08T07:15:34.784Z,12996
2017-08-08T07:16:35.106Z,13168
2017-08-08T07:17:35.106Z,14044
2017-08-08T07:18:35.122Z,13640
2017-08-08T07:19:35.124Z,14160
2017-08-08T07:20:35.187Z,12400
2017-08-08T07:21:35.135Z,11208
2017-08-08T07:22:34.848Z,14188
2017-08-08T07:23:35.149Z,13732
2017-08-08T07:24:35.171Z,14088
2017-08-08T07:25:34.870Z,14528
2017-08-08T07:26:34.869Z,14192
2017-08-08T07:27:35.191Z,13104
2017-08-08T07:28:35.192Z,12616
2017-08-08T07:29:35.196Z,9868
2017-08-08T07:30:35.205Z,12596
2017-08-08T07:31:35.233Z,12440
2017-08-08T07:32:35.222Z,13480
2017-08-08T07:33:35.233Z,12572
2017-08-08T07:34:34.633Z,13292
2017-08-08T07:35:36.445Z,13004
2017-08-08T07:36:35.260Z,12772
2017-08-08T07:37:34.979Z,12680
2017-08-08T07:38:35.269Z,12532
2017-08-08T07:39:35.271Z,11364
2017-08-08T07:40:35.289Z,9472
2017-08-08T07:41:35.290Z,7452
2017-08-08T07:42:35.297Z,7656
2017-08-08T07:43:35.312Z,7692
2017-08-08T07:44:35.335Z,7848
2017-08-08T07:45:35.325Z,8076
2017-08-08T07:46:35.330Z,8208
2017-08-08T07:47:35.333Z,8448
2017-08-08T07:48:35.335Z,9324
2017-08-08T07:49:35.342Z,8768
2017-08-08T07:50:35.401Z,8848
2017-08-08T07:51:34.772Z,8944
2017-08-08T07:52:35.360Z,8692
2017-08-08T07:53:35.386Z,8520
2017-08-08T07:54:35.069Z,8456
2017-08-08T07:55:35.073Z,8324
2017-08-08T07:56:35.082Z,8356
2017-08-08T07:57:35.409Z,8360
2017-08-08T07:58:35.091Z,8372
2017-08-08T07:59:35.401Z,8264
2017-08-08T08:00:35.402Z,8160
2017-08-08T08:01:35.411Z,8228
2017-08-08T08:02:35.428Z,8476
2017-08-08T08:03:35.417Z,8652
2017-08-08T08:04:35.430Z,8948
2017-08-08T08:05:35.580Z,9340
2017-08-08T08:06:35.444Z,9764
2017-08-08T08:07:35.445Z,9820
2017-08-08T08:08:35.443Z,9944
2017-08-08T08:09:35.464Z,10048
2017-08-08T08:10:35.454Z,10204
2017-08-08T08:11:35.466Z,12652
2017-08-08T08:12:35.462Z,9996
2017-08-08T08:13:35.474Z,9948
2017-08-08T08:14:35.499Z,9992
2017-08-08T08:15:35.482Z,13436
2017-08-08T08:16:35.488Z,11380
2017-08-08T08:17:35.496Z,11096
2017-08-08T08:18:35.496Z,13064
2017-08-08T08:19:35.207Z,11740
2017-08-08T08:20:35.522Z,13440
2017-08-08T08:21:40.118Z,13208
2017-08-08T08:22:35.222Z,11232
2017-08-08T08:23:35.230Z,11340
2017-08-08T08:24:35.544Z,11256
2017-08-08T08:25:35.534Z,11376
2017-08-08T08:26:35.538Z,10408
2017-08-08T08:27:35.240Z,10376
2017-08-08T08:28:35.566Z,10540
2017-08-08T08:29:35.592Z,11512
2017-08-08T08:30:35.566Z,11816
2017-08-08T08:31:35.281Z,11104
2017-08-08T08:32:35.298Z,11328
2017-08-08T08:33:35.588Z,11520
2017-08-08T08:34:35.611Z,13308
2017-08-08T08:35:35.006Z,12032
2017-08-08T08:36:38.699Z,11696
2017-08-08T08:37:35.612Z,11040
2017-08-08T08:38:35.338Z,10416
2017-08-08T08:39:35.625Z,10516
2017-08-08T08:40:35.336Z,10756
2017-08-08T08:41:35.338Z,11128
2017-08-08T08:42:35.659Z,11364
2017-08-08T08:43:35.648Z,11496
2017-08-08T08:44:35.351Z,12652
2017-08-08T08:45:35.356Z,10916
2017-08-08T08:46:35.365Z,10376
2017-08-08T08:47:35.663Z,9852
2017-08-08T08:48:34.764Z,9504
2017-08-08T08:49:35.696Z,9232
2017-08-08T08:50:35.682Z,8840
2017-08-08T08:51:35.683Z,8512
2017-08-08T08:52:35.400Z,8392
2017-08-08T08:53:35.696Z,8396
2017-08-08T08:54:35.404Z,8528
2017-08-08T08:55:35.113Z,8680
2017-08-08T08:56:35.110Z,8832
2017-08-08T08:57:35.726Z,8856
2017-08-08T08:58:35.740Z,8756
2017-08-08T08:59:35.746Z,8612
2017-08-08T09:00:35.749Z,8480
2017-08-08T09:01:35.752Z,8344
2017-08-08T09:02:35.458Z,8236
2017-08-08T09:03:35.465Z,8140
2017-08-08T09:04:35.481Z,7956
2017-08-08T09:05:35.160Z,7752
2017-08-08T09:06:35.484Z,7532
2017-08-08T09:07:38.552Z,7424
2017-08-08T09:08:35.779Z,7384
2017-08-08T09:09:35.492Z,7336
2017-08-08T09:10:35.511Z,7336
2017-08-08T09:11:35.812Z,7408
2017-08-08T09:12:35.835Z,7496
2017-08-08T09:13:35.509Z,7600
2017-08-08T09:14:35.531Z,7640
2017-08-08T09:15:35.826Z,7676
2017-08-08T09:16:35.226Z,7836
2017-08-08T09:17:36.632Z,8080
2017-08-08T09:18:35.843Z,8308
2017-08-08T09:19:35.554Z,8420
2017-08-08T09:20:35.260Z,8372
2017-08-08T09:21:35.866Z,8308
2017-08-08T09:22:35.616Z,8188
2017-08-08T09:23:35.862Z,7960
2017-08-08T09:24:35.886Z,7736
2017-08-08T09:25:35.886Z,7544
2017-08-08T09:26:35.584Z,7396
2017-08-08T09:27:35.587Z,7244
2017-08-08T09:28:35.890Z,7128
2017-08-08T09:29:35.632Z,7044
2017-08-08T09:30:35.906Z,6952
2017-08-08T09:31:35.907Z,6956
2017-08-08T09:32:35.619Z,7048
2017-08-08T09:33:35.916Z,7164
2017-08-08T09:34:35.639Z,7244
2017-08-08T09:35:35.929Z,7264
2017-08-08T09:36:35.644Z,7268
2017-08-08T09:37:38.806Z,7288
2017-08-08T09:38:35.956Z,7356
2017-08-08T09:39:35.663Z,7488
2017-08-08T09:40:35.960Z,7700
2017-08-08T09:41:35.962Z,7836
2017-08-08T09:42:35.986Z,7768
2017-08-08T09:43:35.676Z,7548
2017-08-08T09:44:35.684Z,7092
2017-08-08T09:45:35.992Z,6512
2017-08-08T09:46:35.691Z,5952
2017-08-08T09:47:35.692Z,5488
2017-08-08T09:48:35.705Z,5088
2017-08-08T09:49:36.036Z,4784
2017-08-08T09:50:35.741Z,4552
2017-08-08T09:51:36.039Z,4376
2017-08-08T09:52:35.782Z,4260
2017-08-08T09:53:35.430Z,4164
2017-08-08T09:54:36.046Z,4120
2017-08-08T09:55:35.743Z,4140
2017-08-08T09:56:36.053Z,4344
2017-08-08T09:57:36.055Z,4584
2017-08-08T09:58:36.069Z,4832
2017-08-08T09:59:36.076Z,5164
2017-08-08T10:00:35.779Z,5608
2017-08-08T10:01:35.778Z,6044
2017-08-08T10:02:36.132Z,6304
2017-08-08T10:03:35.811Z,6392
2017-08-08T10:04:36.100Z,6392
2017-08-08T10:05:35.818Z,6324
2017-08-08T10:06:35.800Z,6204
2017-08-08T10:07:36.004Z,6120
2017-08-08T10:08:35.511Z,6012
2017-08-08T10:09:36.127Z,6012
2017-08-08T10:10:36.121Z,6300
2017-08-08T10:11:35.844Z,6712
2017-08-08T10:12:35.843Z,7340
2017-08-08T10:13:36.144Z,8276
2017-08-08T10:14:36.148Z,9500
2017-08-08T10:15:36.157Z,11052
2017-08-08T10:16:36.154Z,11980
2017-08-08T10:17:36.153Z,12560
2017-08-08T10:18:35.575Z,12292
2017-08-08T10:19:35.890Z,12672
2017-08-08T10:20:35.864Z,12316
2017-08-08T10:21:35.867Z,12600
2017-08-08T10:22:39.331Z,13304
2017-08-08T10:23:35.895Z,13996
2017-08-08T10:24:36.207Z,14644
2017-08-08T10:25:35.896Z,14516
2017-08-08T10:26:35.907Z,14004
2017-08-08T10:27:36.221Z,14276
2017-08-08T10:28:36.211Z,14036
2017-08-08T10:29:36.252Z,13892
2017-08-08T10:30:35.928Z,13864
2017-08-08T10:31:36.257Z,14160
2017-08-08T10:32:35.628Z,13792
2017-08-08T10:33:35.933Z,13664
2017-08-08T10:34:35.961Z,13612
2017-08-08T10:35:35.960Z,13168
2017-08-08T10:36:35.957Z,12116
2017-08-08T10:37:36.263Z,12848
2017-08-08T10:38:37.819Z,12224
2017-08-08T10:39:36.281Z,12060
2017-08-08T10:40:35.989Z,12172
2017-08-08T10:41:35.986Z,13604
2017-08-08T10:42:35.693Z,12612
2017-08-08T10:43:36.304Z,12508
2017-08-08T10:44:36.329Z,12800
2017-08-08T10:45:36.311Z,12904
2017-08-08T10:46:36.018Z,13256
2017-08-08T10:47:36.007Z,12924
2017-08-08T10:48:36.019Z,12780
2017-08-08T10:49:36.032Z,13072
2017-08-08T10:50:36.339Z,13488
2017-08-08T10:51:36.052Z,14120
2017-08-08T10:52:36.052Z,14112
2017-08-08T10:53:36.117Z,14720
2017-08-08T10:54:36.087Z,14092
2017-08-08T10:55:35.763Z,14476
2017-08-08T10:56:36.369Z,14876
2017-08-08T10:57:36.067Z,13792
2017-08-08T10:58:36.068Z,15216
2017-08-08T10:59:36.388Z,14712
2017-08-08T11:00:35.785Z,15364
2017-08-08T11:01:36.093Z,13364
2017-08-08T11:02:36.095Z,13780
2017-08-08T11:03:36.409Z,13736
2017-08-08T11:04:36.416Z,13076
2017-08-08T11:05:36.130Z,12196
2017-08-08T11:06:36.120Z,11644
2017-08-08T11:07:36.431Z,11164
2017-08-08T11:08:40.695Z,10612
2017-08-08T11:09:36.164Z,10344
2017-08-08T11:10:35.546Z,10156
2017-08-08T11:11:36.450Z,9968
2017-08-08T11:12:36.158Z,9744
2017-08-08T11:13:36.465Z,9524
2017-08-08T11:14:36.478Z,9404
2017-08-08T11:15:36.175Z,9368
2017-08-08T11:16:36.189Z,9452
2017-08-08T11:17:36.481Z,9556
2017-08-08T11:18:36.510Z,9784
2017-08-08T11:19:36.222Z,10040
2017-08-08T11:20:36.203Z,10244
2017-08-08T11:21:36.522Z,10360
2017-08-08T11:22:36.532Z,10404
2017-08-08T11:23:36.581Z,10448
2017-08-08T11:24:36.538Z,10484
2017-08-08T11:25:36.547Z,10332
2017-08-08T11:26:36.546Z,10112
2017-08-08T11:27:36.552Z,9824
2017-08-08T11:28:36.567Z,9544
2017-08-08T11:29:36.571Z,9328
2017-08-08T11:30:36.267Z,9184
2017-08-08T11:31:36.292Z,9280
2017-08-08T11:32:36.587Z,9728
2017-08-08T11:33:36.586Z,10224
2017-08-08T11:34:36.600Z,10692
2017-08-08T11:35:36.318Z,11000
2017-08-08T11:36:36.601Z,11344
2017-08-08T11:37:36.624Z,11800
2017-08-08T11:38:36.915Z,12444
2017-08-08T11:39:36.337Z,13088
2017-08-08T11:40:36.331Z,13532
2017-08-08T11:41:36.026Z,14072
2017-08-08T11:42:36.337Z,14428
2017-08-08T11:43:36.648Z,14700
2017-08-08T11:44:36.654Z,14464
2017-08-08T11:45:36.663Z,14612
2017-08-08T11:46:36.361Z,14304
2017-08-08T11:47:36.673Z,14020
2017-08-08T11:48:36.672Z,13696
2017-08-08T11:49:36.682Z,13388
2017-08-08T11:50:36.395Z,13100
2017-08-08T11:51:36.096Z,12824
2017-08-08T11:52:36.101Z,12504
2017-08-08T11:53:36.408Z,12008
2017-08-08T11:54:36.718Z,11520
2017-08-08T11:55:36.734Z,11100
2017-08-08T11:56:36.426Z,10856
2017-08-08T11:57:36.441Z,10888
2017-08-08T11:58:36.753Z,11064
2017-08-08T11:59:36.748Z,11248
2017-08-08T12:00:36.147Z,11252
2017-08-08T12:01:36.759Z,11392
2017-08-08T12:02:36.459Z,11680
2017-08-08T12:03:36.791Z,11936
2017-08-08T12:04:36.786Z,11960
2017-08-08T12:05:36.798Z,11680
2017-08-08T12:06:36.795Z,11148
2017-08-08T12:07:36.492Z,10500
2017-08-08T12:08:36.495Z,9352
2017-08-08T12:09:36.518Z,9396
2017-08-08T12:10:36.521Z,9840
2017-08-08T12:11:36.524Z,9608
2017-08-08T12:12:35.921Z,8988
2017-08-08T12:13:36.828Z,8472
2017-08-08T12:14:36.569Z,8204
2017-08-08T12:15:36.852Z,8072
2017-08-08T12:16:36.863Z,8620
2017-08-08T12:17:36.560Z,9276
2017-08-08T12:18:36.567Z,9668
2017-08-08T12:19:36.262Z,9872
2017-08-08T12:20:36.895Z,10100
2017-08-08T12:21:36.902Z,10296
2017-08-08T12:22:36.881Z,10476
2017-08-08T12:23:36.887Z,10592
2017-08-08T12:24:36.902Z,10520
2017-08-08T12:25:36.909Z,10636
2017-08-08T12:26:37.029Z,10792
2017-08-08T12:27:36.611Z,10984
2017-08-08T12:28:36.924Z,11300
2017-08-08T12:29:36.330Z,11556
2017-08-08T12:30:36.628Z,11728
2017-08-08T12:31:36.633Z,11884
2017-08-08T12:32:36.658Z,12108
2017-08-08T12:33:36.964Z,12276
2017-08-08T12:34:36.682Z,12456
2017-08-08T12:35:36.356Z,12720
2017-08-08T12:36:36.675Z,12872
2017-08-08T12:37:36.971Z,12752
2017-08-08T12:38:36.985Z,12500
2017-08-08T12:39:40.039Z,12180
2017-08-08T12:40:36.689Z,11956
2017-08-08T12:41:36.989Z,11688
2017-08-08T12:42:36.397Z,11452
2017-08-08T12:43:36.399Z,11124
2017-08-08T12:44:36.413Z,10852
2017-08-08T12:45:37.008Z,10644
2017-08-08T12:46:36.439Z,10472
2017-08-08T12:47:36.725Z,10332
2017-08-08T12:48:37.054Z,10168
2017-08-08T12:49:36.735Z,10032
2017-08-08T12:50:37.042Z,9856
2017-08-08T12:51:37.051Z,9724
2017-08-08T12:52:37.073Z,9588
2017-08-08T12:53:36.762Z,9416
2017-08-08T12:54:37.114Z,9228
2017-08-08T12:55:37.063Z,9000
2017-08-08T12:56:36.770Z,8948
2017-08-08T12:57:36.788Z,9120
2017-08-08T12:58:37.124Z,9424
2017-08-08T12:59:37.134Z,9808
2017-08-08T13:00:36.826Z,10108
2017-08-08T13:01:36.810Z,10316
2017-08-08T13:02:37.140Z,10464
2017-08-08T13:03:37.114Z,10516
2017-08-08T13:04:36.519Z,10556
2017-08-08T13:05:37.132Z,10672
2017-08-08T13:06:36.521Z,10776
2017-08-08T13:07:37.133Z,10952
2017-08-08T13:08:36.852Z,11144
2017-08-08T13:09:39.166Z,11260
2017-08-08T13:10:37.153Z,11280
2017-08-08T13:11:37.165Z,11180
2017-08-08T13:12:37.168Z,10932
2017-08-08T13:13:36.880Z,10548
2017-08-08T13:14:37.208Z,10176
2017-08-08T13:15:37.230Z,9860
2017-08-08T13:16:36.890Z,9548
2017-08-08T13:17:36.885Z,9152
2017-08-08T13:18:37.196Z,8736
2017-08-08T13:19:36.904Z,8420
2017-08-08T13:20:37.202Z,8184
2017-08-08T13:21:36.939Z,7984
2017-08-08T13:22:36.627Z,7852
2017-08-08T13:23:36.930Z,7688
2017-08-08T13:24:37.006Z,7524
2017-08-08T13:25:37.250Z,7272
2017-08-08T13:26:36.933Z,7136
2017-08-08T13:27:37.239Z,7160
2017-08-08T13:28:37.250Z,7256
2017-08-08T13:29:36.666Z,7320
2017-08-08T13:30:37.275Z,7408
2017-08-08T13:31:36.959Z,7400
2017-08-08T13:32:37.290Z,7204
2017-08-08T13:33:36.971Z,6816
2017-08-08T13:34:36.668Z,6324